createdAt,value
2023-04-16T00:00:46.568Z,7.05
2023-04-16T00:03:12.882Z,7.05
2023-04-16T00:05:39.294Z,7.02
2023-04-16T00:08:05.513Z,7.05
2023-04-16T00:10:31.721Z,7.05
2023-04-16T00:12:57.928Z,7.05
2023-04-16T00:15:24.135Z,7.11
2023-04-16T00:17:50.374Z,7.10
2023-04-16T00:20:16.603Z,7.12
2023-04-16T00:22:42.821Z,7.08
2023-04-16T00:25:09.140Z,7.10
2023-04-16T00:27:35.354Z,7.10
2023-04-16T00:30:01.573Z,7.07
2023-04-16T00:32:27.788Z,7.09
2023-04-16T00:34:53.996Z,7.06
2023-04-16T00:37:20.217Z,7.06
2023-04-16T00:39:46.440Z,7.07
2023-04-16T00:42:12.664Z,7.04
2023-04-16T00:44:38.874Z,7.06
2023-04-16T00:47:05.081Z,7.03
2023-04-16T00:49:31.292Z,7.06
2023-04-16T00:51:57.511Z,7.05
2023-04-16T00:54:24.286Z,7.07
2023-04-16T00:56:50.871Z,7.02
2023-04-16T00:59:17.075Z,7.00
2023-04-16T01:01:43.319Z,7.02
2023-04-16T01:04:09.682Z,6.96
2023-04-16T01:06:36.044Z,6.99
2023-04-16T01:09:02.258Z,6.99
2023-04-16T01:11:28.476Z,6.94
2023-04-16T01:13:54.693Z,6.96
2023-04-16T01:16:20.944Z,6.93
2023-04-16T01:18:47.205Z,6.95
2023-04-16T01:21:13.434Z,6.95
2023-04-16T01:23:39.649Z,6.92
2023-04-16T01:26:05.876Z,6.91
2023-04-16T01:28:32.092Z,6.94
2023-04-16T01:30:58.368Z,6.90
2023-04-16T01:33:24.592Z,6.90
2023-04-16T01:35:50.812Z,6.92
2023-04-16T01:38:17.008Z,6.91
2023-04-16T01:40:43.212Z,6.93
2023-04-16T01:43:09.420Z,6.93
2023-04-16T01:45:35.665Z,6.91
2023-04-16T01:48:02.193Z,6.89
2023-04-16T01:50:28.690Z,6.88
2023-04-16T01:52:54.889Z,6.86
2023-04-16T01:55:21.102Z,6.83
2023-04-16T01:57:47.303Z,6.86
2023-04-16T02:00:13.526Z,6.84
2023-04-16T02:02:39.815Z,6.84
2023-04-16T02:05:06.252Z,6.87
2023-04-16T02:07:32.466Z,6.89
2023-04-16T02:09:58.691Z,6.88
2023-04-16T02:12:25.277Z,6.92
2023-04-16T02:14:51.484Z,6.93
2023-04-16T02:17:17.709Z,6.90
2023-04-16T02:19:43.936Z,6.90
2023-04-16T02:22:10.148Z,6.91
2023-04-16T02:24:36.341Z,6.88
2023-04-16T02:27:02.548Z,6.88
2023-04-16T02:29:28.765Z,6.86
2023-04-16T02:31:54.984Z,6.87
2023-04-16T02:34:21.242Z,6.83
2023-04-16T02:36:47.469Z,6.85
2023-04-16T02:39:13.663Z,6.83
2023-04-16T02:41:39.885Z,6.81
2023-04-16T02:44:06.111Z,6.77
2023-04-16T02:46:32.332Z,6.79
2023-04-16T02:48:58.536Z,6.78
2023-04-16T02:51:24.748Z,6.77
2023-04-16T02:53:50.944Z,6.74
2023-04-16T02:56:17.159Z,6.75
2023-04-16T02:58:43.372Z,6.75
2023-04-16T03:01:09.631Z,6.75
2023-04-16T03:03:35.862Z,6.74
2023-04-16T03:06:02.115Z,6.76
2023-04-16T03:08:28.324Z,6.72
2023-04-16T03:10:54.548Z,6.76
2023-04-16T03:13:20.752Z,6.75
2023-04-16T03:15:50.151Z,6.71
2023-04-16T03:18:16.472Z,6.70
2023-04-16T03:20:42.694Z,6.68
2023-04-16T03:23:08.898Z,6.67
2023-04-16T03:25:35.120Z,6.69
2023-04-16T03:28:01.313Z,6.66
2023-04-16T03:30:27.546Z,6.66
2023-04-16T03:32:53.767Z,6.67
2023-04-16T03:35:19.989Z,6.66
2023-04-16T03:37:46.186Z,6.64
2023-04-16T03:40:12.594Z,6.66
2023-04-16T03:42:38.803Z,6.65
2023-04-16T03:45:05.151Z,6.63
2023-04-16T03:47:31.434Z,6.63
2023-04-16T03:49:57.670Z,6.64
2023-04-16T03:52:23.880Z,6.62
2023-04-16T03:54:50.092Z,6.62
2023-04-16T03:57:16.302Z,6.59
2023-04-16T03:59:42.515Z,6.61
2023-04-16T04:02:08.811Z,6.58
2023-04-16T04:04:36.942Z,6.58
2023-04-16T04:07:03.320Z,6.60
2023-04-16T04:09:29.548Z,6.62
2023-04-16T04:11:55.772Z,6.62
2023-04-16T04:14:21.988Z,6.61
2023-04-16T04:16:48.311Z,6.60
2023-04-16T04:19:14.589Z,6.59
2023-04-16T04:21:40.811Z,6.61
2023-04-16T04:24:07.023Z,6.62
2023-04-16T04:26:33.334Z,6.63
2023-04-16T04:28:59.551Z,6.62
2023-04-16T04:31:25.789Z,6.65
2023-04-16T04:33:52.002Z,6.66
2023-04-16T04:36:18.214Z,6.66
2023-04-16T04:38:44.423Z,6.64
2023-04-16T04:41:10.636Z,6.64
2023-04-16T04:43:36.836Z,6.63
2023-04-16T04:46:03.101Z,6.68
2023-04-16T04:48:29.364Z,6.65
2023-04-16T04:50:55.592Z,6.67
2023-04-16T04:53:21.814Z,6.69
2023-04-16T04:55:50.918Z,6.74
2023-04-16T04:58:19.258Z,6.78
2023-04-16T05:00:45.508Z,6.78
2023-04-16T05:03:11.902Z,6.82
2023-04-16T05:05:38.994Z,6.86
2023-04-16T05:08:05.194Z,6.94
2023-04-16T05:10:31.403Z,6.92
2023-04-16T05:12:57.613Z,7.03
2023-04-16T05:15:23.880Z,7.10
2023-04-16T05:17:50.123Z,7.12
2023-04-16T05:20:16.374Z,7.17
2023-04-16T05:22:42.567Z,7.17
2023-04-16T05:25:08.829Z,7.18
2023-04-16T05:27:35.080Z,7.24
2023-04-16T05:30:01.302Z,7.31
2023-04-16T05:32:27.565Z,7.31
2023-04-16T05:34:53.793Z,7.30
2023-04-16T05:37:19.997Z,7.26
2023-04-16T05:39:46.272Z,7.29
2023-04-16T05:42:12.480Z,7.29
2023-04-16T05:44:38.683Z,7.28
2023-04-16T05:47:04.966Z,7.27
2023-04-16T05:49:31.172Z,7.31
2023-04-16T05:51:57.381Z,7.33
2023-04-16T05:54:23.595Z,7.35
2023-04-16T05:56:49.811Z,7.41
2023-04-16T05:59:16.025Z,7.43
2023-04-16T06:01:42.238Z,7.44
2023-04-16T06:04:08.573Z,7.40
2023-04-16T06:06:34.876Z,7.51
2023-04-16T06:09:01.097Z,7.54
2023-04-16T06:11:27.320Z,7.57
2023-04-16T06:13:53.512Z,7.57
2023-04-16T06:16:19.750Z,7.53
2023-04-16T06:18:45.983Z,7.49
2023-04-16T06:21:12.202Z,7.50
2023-04-16T06:23:38.420Z,7.51
2023-04-16T06:26:04.857Z,7.41
2023-04-16T06:28:31.064Z,7.53
2023-04-16T06:30:57.292Z,7.60
2023-04-16T06:33:23.499Z,7.69
2023-04-16T06:35:49.694Z,7.68
2023-04-16T06:38:15.904Z,7.68
2023-04-16T06:40:42.102Z,7.73
2023-04-16T06:43:08.714Z,7.71
2023-04-16T06:45:34.918Z,7.88
2023-04-16T06:48:01.419Z,7.99
2023-04-16T06:50:27.645Z,8.14
2023-04-16T06:52:54.280Z,8.25
2023-04-16T06:55:20.474Z,8.33
2023-04-16T06:57:46.686Z,8.35
2023-04-16T07:00:12.994Z,8.33
2023-04-16T07:02:39.386Z,8.29
2023-04-16T07:05:05.802Z,8.22
2023-04-16T07:07:32.252Z,8.16
2023-04-16T07:09:58.782Z,8.15
2023-04-16T07:12:25.048Z,8.11
2023-04-16T07:14:51.261Z,8.20
2023-04-16T07:17:17.492Z,8.21
2023-04-16T07:19:45.470Z,8.17
2023-04-16T07:22:11.704Z,8.19
2023-04-16T07:24:37.918Z,8.20
2023-04-16T07:27:04.206Z,8.20
2023-04-16T07:29:30.408Z,8.28
2023-04-16T07:31:56.896Z,8.31
2023-04-16T07:34:23.142Z,8.44
2023-04-16T07:36:49.362Z,8.51
2023-04-16T07:39:15.573Z,8.52
2023-04-16T07:41:41.775Z,8.57
2023-04-16T07:44:07.981Z,8.50
2023-04-16T07:46:43.543Z,8.47
2023-04-16T07:49:12.925Z,8.49
2023-04-16T07:51:39.139Z,8.54
2023-04-16T07:54:05.356Z,8.55
2023-04-16T07:56:31.589Z,8.41
2023-04-16T07:59:02.822Z,8.46
2023-04-16T08:01:34.421Z,8.49
2023-04-16T08:04:00.767Z,8.59
2023-04-16T08:06:27.155Z,8.72
2023-04-16T08:08:53.354Z,8.69
2023-04-16T08:11:19.572Z,8.75
2023-04-16T08:13:45.775Z,8.71
2023-04-16T08:16:12.058Z,8.71
2023-04-16T08:18:38.367Z,8.68
2023-04-16T08:21:04.581Z,8.80
2023-04-16T08:23:30.797Z,8.76
2023-04-16T08:25:56.994Z,8.87
2023-04-16T08:28:23.198Z,8.80
2023-04-16T08:30:49.391Z,8.87
2023-04-16T08:33:15.756Z,9.01
2023-04-16T08:35:42.010Z,9.02
2023-04-16T08:38:08.231Z,9.02
2023-04-16T08:40:34.959Z,9.18
2023-04-16T08:43:01.206Z,9.32
2023-04-16T08:45:27.424Z,9.53
2023-04-16T08:47:53.697Z,9.53
2023-04-16T08:50:23.576Z,9.31
2023-04-16T08:52:50.652Z,9.38
2023-04-16T08:55:16.878Z,9.44
2023-04-16T08:57:44.649Z,9.61
2023-04-16T09:00:11.436Z,9.78
2023-04-16T09:02:37.969Z,9.66
2023-04-16T09:05:05.837Z,9.89
2023-04-16T09:07:32.079Z,9.83
2023-04-16T09:09:59.224Z,9.80
2023-04-16T09:12:25.445Z,9.89
2023-04-16T09:14:51.641Z,9.81
2023-04-16T09:17:18.136Z,9.81
2023-04-16T09:19:44.823Z,9.99
2023-04-16T09:22:11.324Z,10.16
2023-04-16T09:24:37.552Z,10.35
2023-04-16T09:27:03.952Z,10.50
2023-04-16T09:29:37.656Z,10.57
2023-04-16T09:32:04.507Z,10.82
2023-04-16T09:34:33.838Z,10.95
2023-04-16T09:37:15.660Z,10.85
2023-04-16T09:39:42.596Z,11.05
2023-04-16T09:42:08.847Z,11.08
2023-04-16T09:44:35.544Z,11.03
2023-04-16T09:47:05.064Z,11.10
2023-04-16T09:49:31.257Z,11.22
2023-04-16T09:51:57.458Z,10.74
2023-04-16T09:54:23.677Z,10.85
2023-04-16T09:56:49.902Z,10.95
2023-04-16T09:59:19.490Z,11.30
2023-04-16T10:01:45.862Z,11.58
2023-04-16T10:04:12.204Z,11.80
2023-04-16T10:06:38.445Z,11.70
2023-04-16T10:09:06.840Z,11.65
2023-04-16T10:11:33.071Z,11.26
2023-04-16T10:13:59.279Z,11.25
2023-04-16T10:16:25.502Z,11.36
2023-04-16T10:18:51.774Z,11.47
2023-04-16T10:21:17.987Z,11.48
2023-04-16T10:23:44.281Z,11.78
2023-04-16T10:26:10.550Z,12.22
2023-04-16T10:28:36.801Z,12.22
2023-04-16T10:31:03.484Z,11.85
2023-04-16T10:33:31.110Z,11.83
2023-04-16T10:36:08.001Z,11.76
2023-04-16T10:38:34.423Z,11.72
2023-04-16T10:41:03.705Z,11.70
2023-04-16T10:43:30.322Z,11.62
2023-04-16T10:45:56.572Z,11.82
2023-04-16T10:48:24.103Z,12.19
2023-04-16T10:50:54.051Z,12.42
2023-04-16T10:53:20.682Z,12.68
2023-04-16T10:55:56.202Z,13.01
2023-04-16T10:58:29.043Z,12.84
2023-04-16T11:00:55.238Z,12.96
2023-04-16T11:03:21.491Z,12.56
2023-04-16T11:05:47.732Z,12.67
2023-04-16T11:08:14.005Z,12.85
2023-04-16T11:10:40.204Z,12.64
2023-04-16T11:13:06.431Z,12.83
2023-04-16T11:15:32.758Z,12.79
2023-04-16T11:17:59.019Z,12.74
2023-04-16T11:20:25.777Z,12.75
2023-04-16T11:22:52.704Z,12.94
2023-04-16T11:25:22.222Z,12.69
2023-04-16T11:27:48.703Z,12.24
2023-04-16T11:30:14.935Z,12.20
2023-04-16T11:32:41.257Z,12.51
2023-04-16T11:35:14.395Z,12.28
2023-04-16T11:37:41.252Z,12.17
2023-04-16T11:40:07.661Z,12.09
2023-04-16T11:42:34.067Z,11.83
2023-04-16T11:45:00.310Z,11.88
2023-04-16T11:47:26.659Z,11.96
2023-04-16T11:49:52.897Z,11.87
2023-04-16T11:52:25.784Z,12.04
2023-04-16T11:54:51.996Z,12.60
2023-04-16T11:57:27.774Z,12.83
2023-04-16T12:00:02.610Z,12.38
2023-04-16T12:02:35.576Z,12.08
2023-04-16T12:05:03.076Z,12.45
2023-04-16T12:07:29.355Z,12.82
2023-04-16T12:10:04.829Z,12.88
2023-04-16T12:12:32.054Z,12.46
2023-04-16T12:14:58.599Z,12.44
2023-04-16T12:17:24.958Z,12.24
2023-04-16T12:19:51.168Z,12.11
2023-04-16T12:22:17.627Z,11.81
2023-04-16T12:24:43.830Z,11.92
2023-04-16T12:27:10.057Z,11.85
2023-04-16T12:29:36.281Z,11.87
2023-04-16T12:32:02.499Z,12.05
2023-04-16T12:34:48.189Z,12.23
2023-04-16T12:37:14.923Z,12.21
2023-04-16T12:39:41.512Z,12.47
2023-04-16T12:42:07.724Z,13.41
2023-04-16T12:44:33.918Z,14.16
2023-04-16T12:47:00.151Z,13.83
2023-04-16T12:49:26.361Z,13.05
2023-04-16T12:51:52.573Z,13.25
2023-04-16T12:54:18.770Z,13.26
2023-04-16T12:56:45.037Z,12.75
2023-04-16T12:59:11.410Z,12.86
2023-04-16T13:01:37.742Z,12.80
2023-04-16T13:04:04.076Z,13.19
2023-04-16T13:06:30.430Z,13.19
2023-04-16T13:08:56.625Z,12.89
2023-04-16T13:11:22.834Z,12.78
2023-04-16T13:13:49.042Z,12.61
2023-04-16T13:16:15.299Z,12.68
2023-04-16T13:18:41.537Z,12.91
2023-04-16T13:21:08.043Z,13.19
2023-04-16T13:23:34.593Z,13.19
2023-04-16T13:26:00.798Z,12.73
2023-04-16T13:28:27.006Z,13.03
2023-04-16T13:30:53.220Z,12.92
2023-04-16T13:33:19.466Z,13.29
2023-04-16T13:35:45.670Z,13.21
2023-04-16T13:38:11.924Z,13.06
2023-04-16T13:40:38.127Z,12.99
2023-04-16T13:43:05.937Z,12.77
2023-04-16T13:45:33.502Z,12.41
2023-04-16T13:47:59.770Z,12.56
2023-04-16T13:50:25.995Z,12.71
2023-04-16T13:52:52.209Z,12.89
2023-04-16T13:55:18.405Z,12.88
2023-04-16T13:57:45.590Z,12.84
2023-04-16T14:00:13.374Z,12.99
2023-04-16T14:02:40.105Z,12.82
2023-04-16T14:05:06.558Z,12.80
2023-04-16T14:07:32.784Z,12.99
2023-04-16T14:09:58.987Z,12.86
2023-04-16T14:12:25.198Z,12.99
2023-04-16T14:14:51.397Z,13.50
2023-04-16T14:17:17.614Z,13.41
2023-04-16T14:19:43.828Z,13.34
2023-04-16T14:22:10.049Z,12.74
2023-04-16T14:24:36.330Z,12.26
2023-04-16T14:27:02.572Z,12.23
2023-04-16T14:29:28.787Z,12.47
2023-04-16T14:31:55.066Z,12.73
2023-04-16T14:34:21.316Z,12.73
2023-04-16T14:36:47.536Z,12.84
2023-04-16T14:39:13.746Z,13.27
2023-04-16T14:41:42.880Z,13.79
2023-04-16T14:44:09.094Z,13.56
2023-04-16T14:46:35.298Z,12.83
2023-04-16T14:49:01.518Z,12.52
2023-04-16T14:51:27.726Z,12.32
2023-04-16T14:53:53.936Z,12.26
2023-04-16T14:56:20.197Z,12.45
2023-04-16T14:58:46.419Z,12.34
2023-04-16T15:01:12.635Z,12.24
2023-04-16T15:03:38.993Z,12.44
2023-04-16T15:06:05.253Z,12.31
2023-04-16T15:08:32.046Z,12.52
2023-04-16T15:10:58.239Z,12.46
2023-04-16T15:13:24.450Z,12.56
2023-04-16T15:15:50.672Z,12.65
2023-04-16T15:18:16.903Z,12.65
2023-04-16T15:20:43.103Z,12.57
2023-04-16T15:23:09.317Z,12.27
2023-04-16T15:25:35.571Z,12.05
2023-04-16T15:28:01.812Z,11.87
2023-04-16T15:30:28.011Z,11.80
2023-04-16T15:32:54.275Z,11.62
2023-04-16T15:35:20.539Z,11.55
2023-04-16T15:37:46.759Z,11.73
2023-04-16T15:40:12.966Z,12.07
2023-04-16T15:42:39.210Z,12.17
2023-04-16T15:45:05.600Z,11.83
2023-04-16T15:47:31.913Z,11.53
2023-04-16T15:49:58.147Z,11.41
2023-04-16T15:52:24.354Z,11.39
2023-04-16T15:54:50.564Z,11.25
2023-04-16T15:57:16.779Z,11.40
2023-04-16T15:59:46.198Z,11.35
2023-04-16T16:02:19.336Z,11.24
2023-04-16T16:04:45.834Z,11.31
2023-04-16T16:07:12.330Z,11.34
2023-04-16T16:09:38.557Z,11.41
2023-04-16T16:12:04.836Z,11.43
2023-04-16T16:14:31.044Z,11.55
2023-04-16T16:16:57.269Z,11.60
2023-04-16T16:19:23.470Z,11.63
2023-04-16T16:21:49.688Z,11.49
2023-04-16T16:24:15.914Z,11.40
2023-04-16T16:26:42.109Z,11.31
2023-04-16T16:29:08.498Z,11.28
2023-04-16T16:31:34.867Z,11.24
2023-04-16T16:34:01.079Z,11.18
2023-04-16T16:36:27.295Z,11.12
2023-04-16T16:38:53.579Z,10.97
2023-04-16T16:41:19.821Z,10.90
2023-04-16T16:43:46.044Z,10.90
2023-04-16T16:46:12.280Z,10.93
2023-04-16T16:48:38.547Z,10.82
2023-04-16T16:51:04.957Z,10.73
2023-04-16T16:53:31.176Z,10.66
2023-04-16T16:55:57.382Z,10.64
2023-04-16T16:58:23.635Z,10.68
2023-04-16T17:00:49.896Z,10.66
2023-04-16T17:03:16.203Z,10.68
2023-04-16T17:05:42.451Z,10.56
2023-04-16T17:08:08.662Z,10.42
2023-04-16T17:10:35.209Z,10.31
2023-04-16T17:13:01.427Z,10.24
2023-04-16T17:15:27.640Z,10.17
2023-04-16T17:17:53.902Z,10.16
2023-04-16T17:20:20.242Z,10.08
2023-04-16T17:22:46.444Z,10.01
2023-04-16T17:25:12.656Z,9.93
2023-04-16T17:27:42.080Z,9.84
2023-04-16T17:30:08.402Z,9.75
2023-04-16T17:32:34.663Z,9.72
2023-04-16T17:35:00.963Z,9.63
2023-04-16T17:37:27.186Z,9.54
2023-04-16T17:39:53.391Z,9.43
2023-04-16T17:42:19.598Z,9.35
2023-04-16T17:44:45.804Z,9.26
2023-04-16T17:47:12.210Z,9.18
2023-04-16T17:49:38.403Z,9.09
2023-04-16T17:52:04.597Z,8.99
2023-04-16T17:54:30.803Z,8.94
2023-04-16T17:56:57.008Z,8.86
2023-04-16T17:59:23.232Z,8.73
2023-04-16T18:01:49.601Z,8.67
2023-04-16T18:04:16.280Z,8.58
2023-04-16T18:06:42.965Z,8.58
2023-04-16T18:09:09.219Z,8.47
2023-04-16T18:11:35.453Z,8.44
2023-04-16T18:14:01.729Z,8.40
2023-04-16T18:16:28.099Z,8.34
2023-04-16T18:18:54.377Z,8.26
2023-04-16T18:21:20.582Z,8.19
2023-04-16T18:23:46.805Z,8.12
2023-04-16T18:26:13.015Z,8.09
2023-04-16T18:28:39.233Z,8.10
2023-04-16T18:31:05.548Z,8.06
2023-04-16T18:36:01.045Z,7.95
2023-04-16T18:38:27.254Z,7.90
2023-04-16T18:40:53.475Z,7.85
2023-04-16T18:43:19.710Z,7.90
2023-04-16T18:45:45.916Z,7.86
2023-04-16T18:48:12.124Z,7.85
2023-04-16T18:50:38.377Z,7.76
2023-04-16T18:53:04.592Z,7.70
2023-04-16T18:55:30.789Z,7.69
2023-04-16T18:57:57.005Z,7.71
2023-04-16T19:00:23.210Z,7.70
2023-04-16T19:02:49.572Z,7.61
2023-04-16T19:05:15.896Z,7.63
2023-04-16T19:07:42.130Z,7.61
2023-04-16T19:10:08.548Z,7.61
2023-04-16T19:12:34.768Z,7.57
2023-04-16T19:15:00.971Z,7.52
2023-04-16T19:17:27.214Z,7.46
2023-04-16T19:19:53.476Z,7.44
2023-04-16T19:22:19.680Z,7.39
2023-04-16T19:24:45.898Z,7.34
2023-04-16T19:27:12.094Z,7.31
2023-04-16T19:29:38.304Z,7.29
2023-04-16T19:32:04.601Z,7.29
2023-04-16T19:34:30.868Z,7.25
2023-04-16T19:36:57.069Z,7.26
2023-04-16T19:39:26.515Z,7.25
2023-04-16T19:41:52.711Z,7.22
2023-04-16T19:44:18.916Z,7.19
2023-04-16T19:46:45.211Z,7.20
2023-04-16T19:49:11.611Z,7.18
2023-04-16T19:51:37.922Z,7.19
2023-04-16T19:54:04.161Z,7.21
2023-04-16T19:56:30.387Z,7.20
2023-04-16T19:58:56.620Z,7.18
2023-04-16T20:01:22.853Z,7.14
2023-04-16T20:03:49.251Z,7.14
2023-04-16T20:06:15.534Z,7.12
2023-04-16T20:08:41.757Z,7.08
2023-04-16T20:11:07.970Z,7.08
2023-04-16T20:13:34.179Z,7.07
2023-04-16T20:16:00.378Z,7.06
2023-04-16T20:18:28.112Z,7.09
2023-04-16T20:20:54.578Z,7.15
2023-04-16T20:23:20.819Z,7.16
2023-04-16T20:25:47.016Z,7.27
2023-04-16T20:28:13.228Z,7.25
2023-04-16T20:30:39.490Z,7.22
2023-04-16T20:33:06.096Z,7.15
2023-04-16T20:35:32.682Z,7.19
2023-04-16T20:37:59.017Z,7.25
2023-04-16T20:40:25.224Z,7.31
2023-04-16T20:42:51.446Z,7.44
2023-04-16T20:45:17.995Z,7.52
2023-04-16T20:47:44.260Z,7.55
2023-04-16T20:50:10.643Z,7.65
2023-04-16T20:52:37.119Z,7.64
2023-04-16T20:55:03.363Z,7.64
2023-04-16T20:57:29.578Z,7.66
2023-04-16T20:59:55.829Z,7.65
2023-04-16T21:02:22.283Z,7.61
2023-04-16T21:04:48.634Z,7.44
2023-04-16T21:07:15.068Z,7.22
2023-04-16T21:09:41.287Z,7.00
2023-04-16T21:12:07.499Z,6.85
2023-04-16T21:14:33.704Z,6.78
2023-04-16T21:16:59.902Z,6.71
2023-04-16T21:19:26.119Z,6.62
2023-04-16T21:21:52.319Z,6.56
2023-04-16T21:24:18.526Z,6.57
2023-04-16T21:26:44.744Z,6.54
2023-04-16T21:29:11.248Z,6.51
2023-04-16T21:31:37.769Z,6.47
2023-04-16T21:34:04.035Z,6.46
2023-04-16T21:36:30.256Z,6.40
2023-04-16T21:38:56.478Z,6.34
2023-04-16T21:41:22.683Z,6.44
2023-04-16T21:43:48.880Z,6.51
2023-04-16T21:46:15.105Z,6.59
2023-04-16T21:48:41.315Z,6.50
2023-04-16T21:51:07.539Z,6.51
2023-04-16T21:53:33.813Z,6.63
2023-04-16T21:56:00.096Z,6.70
2023-04-16T21:58:26.302Z,6.79
2023-04-16T22:00:52.599Z,6.75
2023-04-16T22:03:19.053Z,6.72
2023-04-16T22:05:45.454Z,6.79
2023-04-16T22:10:43.552Z,6.72
2023-04-16T22:13:09.746Z,6.69
2023-04-16T22:15:35.965Z,6.68
2023-04-16T22:18:02.209Z,6.74
2023-04-16T22:20:28.467Z,6.85
2023-04-16T22:22:54.673Z,6.93
2023-04-16T22:25:20.892Z,7.02
2023-04-16T22:27:47.090Z,7.05
2023-04-16T22:30:13.325Z,7.10
2023-04-16T22:32:39.567Z,7.17
2023-04-16T22:35:05.904Z,7.03
2023-04-16T22:37:32.127Z,7.02
2023-04-16T22:39:58.370Z,7.05
2023-04-16T22:42:24.568Z,7.09
2023-04-16T22:44:50.777Z,7.08
2023-04-16T22:47:16.977Z,7.11
2023-04-16T22:49:43.262Z,7.15
2023-04-16T22:52:09.466Z,7.20
2023-04-16T22:54:35.695Z,7.20
2023-04-16T22:57:01.927Z,7.23
2023-04-16T22:59:28.188Z,7.14
2023-04-16T23:01:54.551Z,7.10
2023-04-16T23:04:20.890Z,7.14
2023-04-16T23:06:47.130Z,7.17
2023-04-16T23:09:13.656Z,7.22
2023-04-16T23:11:40.275Z,7.21
2023-04-16T23:14:06.476Z,7.18
2023-04-16T23:16:32.709Z,7.20
2023-04-16T23:18:58.919Z,7.19
2023-04-16T23:21:25.126Z,7.18
2023-04-16T23:23:51.409Z,7.19
2023-04-16T23:26:17.760Z,7.18
2023-04-16T23:28:43.968Z,7.18
2023-04-16T23:31:10.213Z,7.17
2023-04-16T23:33:36.429Z,7.01
2023-04-16T23:36:02.649Z,7.06
2023-04-16T23:38:28.852Z,7.13
2023-04-16T23:40:55.061Z,7.14
2023-04-16T23:43:21.260Z,7.14
2023-04-16T23:45:47.492Z,7.11
2023-04-16T23:48:13.755Z,7.09
2023-04-16T23:50:39.977Z,7.09
2023-04-16T23:53:06.184Z,7.08
2023-04-16T23:55:32.392Z,7.07
2023-04-16T23:57:58.636Z,7.06
